sensor_id;sensor_type;location;lat;lon;timestamp;pressure;altitude;pressure_sealevel;temperature
12007;BMP180;6062;47.294;12.182;2023-02-15T00:00:22;81357.00;;;6.70
12007;BMP180;6062;47.294;12.182;2023-02-15T00:02:47;81355.00;;;6.80
12007;BMP180;6062;47.294;12.182;2023-02-15T00:05:13;81349.00;;;6.80
12007;BMP180;6062;47.294;12.182;2023-02-15T00:07:39;81347.00;;;6.90
12007;BMP180;6062;47.294;12.182;2023-02-15T00:10:06;81341.00;;;6.90
12007;BMP180;6062;47.294;12.182;2023-02-15T00:12:32;81341.00;;;7.00
12007;BMP180;6062;47.294;12.182;2023-02-15T00:14:57;81342.00;;;7.00
12007;BMP180;6062;47.294;12.182;2023-02-15T00:17:23;81345.00;;;7.10
12007;BMP180;6062;47.294;12.182;2023-02-15T00:19:49;81341.00;;;7.10
12007;BMP180;6062;47.294;12.182;2023-02-15T00:22:15;81332.00;;;7.00
12007;BMP180;6062;47.294;12.182;2023-02-15T00:24:40;81328.00;;;7.00
12007;BMP180;6062;47.294;12.182;2023-02-15T00:27:06;81320.00;;;7.00
12007;BMP180;6062;47.294;12.182;2023-02-15T00:29:32;81325.00;;;7.00
12007;BMP180;6062;47.294;12.182;2023-02-15T00:31:57;81329.00;;;6.90
12007;BMP180;6062;47.294;12.182;2023-02-15T00:34:26;81321.00;;;6.90
12007;BMP180;6062;47.294;12.182;2023-02-15T00:36:52;81330.00;;;6.90
12007;BMP180;6062;47.294;12.182;2023-02-15T00:39:19;81326.00;;;6.80
12007;BMP180;6062;47.294;12.182;2023-02-15T00:41:46;81329.00;;;6.80
12007;BMP180;6062;47.294;12.182;2023-02-15T00:44:12;81326.00;;;6.80
12007;BMP180;6062;47.294;12.182;2023-02-15T00:46:39;81322.00;;;6.80
12007;BMP180;6062;47.294;12.182;2023-02-15T00:49:05;81321.00;;;6.80
12007;BMP180;6062;47.294;12.182;2023-02-15T00:51:32;81310.00;;;6.80
12007;BMP180;6062;47.294;12.182;2023-02-15T00:53:58;81318.00;;;6.80
12007;BMP180;6062;47.294;12.182;2023-02-15T00:56:23;81317.00;;;6.80
12007;BMP180;6062;47.294;12.182;2023-02-15T00:58:49;81312.00;;;6.80
12007;BMP180;6062;47.294;12.182;2023-02-15T01:01:18;81309.00;;;6.80
12007;BMP180;6062;47.294;12.182;2023-02-15T01:03:45;81310.00;;;6.80
12007;BMP180;6062;47.294;12.182;2023-02-15T01:06:14;81310.00;;;6.80
12007;BMP180;6062;47.294;12.182;2023-02-15T01:08:40;81311.00;;;6.80
12007;BMP180;6062;47.294;12.182;2023-02-15T01:11:10;81309.00;;;6.80
12007;BMP180;6062;47.294;12.182;2023-02-15T01:13:36;81300.00;;;6.80
12007;BMP180;6062;47.294;12.182;2023-02-15T01:16:03;81303.00;;;6.80
12007;BMP180;6062;47.294;12.182;2023-02-15T01:18:30;81302.00;;;6.70
12007;BMP180;6062;47.294;12.182;2023-02-15T01:20:56;81307.00;;;6.80
12007;BMP180;6062;47.294;12.182;2023-02-15T01:23:22;81298.00;;;6.70
12007;BMP180;6062;47.294;12.182;2023-02-15T01:25:48;81299.00;;;6.70
12007;BMP180;6062;47.294;12.182;2023-02-15T01:28:14;81301.00;;;6.70
12007;BMP180;6062;47.294;12.182;2023-02-15T01:30:40;81295.00;;;6.70
12007;BMP180;6062;47.294;12.182;2023-02-15T01:33:05;81289.00;;;6.70
12007;BMP180;6062;47.294;12.182;2023-02-15T01:35:32;81285.00;;;6.70
12007;BMP180;6062;47.294;12.182;2023-02-15T01:37:58;81288.00;;;6.60
12007;BMP180;6062;47.294;12.182;2023-02-15T01:40:24;81283.00;;;6.60
12007;BMP180;6062;47.294;12.182;2023-02-15T01:42:52;81291.00;;;6.60
12007;BMP180;6062;47.294;12.182;2023-02-15T01:45:28;81279.00;;;6.60
12007;BMP180;6062;47.294;12.182;2023-02-15T01:48:03;81275.00;;;6.50
12007;BMP180;6062;47.294;12.182;2023-02-15T01:50:37;81270.00;;;6.50
12007;BMP180;6062;47.294;12.182;2023-02-15T01:53:24;81272.00;;;6.50
12007;BMP180;6062;47.294;12.182;2023-02-15T01:55:59;81275.00;;;6.50
12007;BMP180;6062;47.294;12.182;2023-02-15T01:58:29;81267.00;;;6.50
12007;BMP180;6062;47.294;12.182;2023-02-15T02:00:59;81266.00;;;6.50
12007;BMP180;6062;47.294;12.182;2023-02-15T02:04:20;81264.00;;;6.50
12007;BMP180;6062;47.294;12.182;2023-02-15T02:06:50;81258.00;;;6.50
12007;BMP180;6062;47.294;12.182;2023-02-15T02:09:16;81261.00;;;6.50
12007;BMP180;6062;47.294;12.182;2023-02-15T02:11:46;81258.00;;;6.60
12007;BMP180;6062;47.294;12.182;2023-02-15T02:14:13;81261.00;;;6.60
12007;BMP180;6062;47.294;12.182;2023-02-15T02:22:42;81260.00;;;6.70
12007;BMP180;6062;47.294;12.182;2023-02-15T02:35:27;81240.00;;;6.70
12007;BMP180;6062;47.294;12.182;2023-02-15T02:38:20;81250.00;;;6.70
12007;BMP180;6062;47.294;12.182;2023-02-15T02:41:06;81244.00;;;6.70
12007;BMP180;6062;47.294;12.182;2023-02-15T02:46:30;81245.00;;;6.70
12007;BMP180;6062;47.294;12.182;2023-02-15T02:48:57;81243.00;;;6.80
12007;BMP180;6062;47.294;12.182;2023-02-15T02:51:22;81235.00;;;6.90
12007;BMP180;6062;47.294;12.182;2023-02-15T02:53:55;81237.00;;;6.90
12007;BMP180;6062;47.294;12.182;2023-02-15T02:56:33;81241.00;;;7.00
12007;BMP180;6062;47.294;12.182;2023-02-15T02:59:07;81232.00;;;7.00
12007;BMP180;6062;47.294;12.182;2023-02-15T03:01:44;81242.00;;;7.00
12007;BMP180;6062;47.294;12.182;2023-02-15T03:04:19;81253.00;;;7.10
12007;BMP180;6062;47.294;12.182;2023-02-15T03:06:58;81242.00;;;7.10
12007;BMP180;6062;47.294;12.182;2023-02-15T03:09:39;81249.00;;;7.00
12007;BMP180;6062;47.294;12.182;2023-02-15T03:12:28;81247.00;;;7.00
12007;BMP180;6062;47.294;12.182;2023-02-15T03:15:04;81241.00;;;6.90
12007;BMP180;6062;47.294;12.182;2023-02-15T03:17:35;81237.00;;;6.90
12007;BMP180;6062;47.294;12.182;2023-02-15T03:20:09;81229.00;;;6.90
12007;BMP180;6062;47.294;12.182;2023-02-15T03:22:43;81231.00;;;6.90
12007;BMP180;6062;47.294;12.182;2023-02-15T03:25:22;81224.00;;;6.90
12007;BMP180;6062;47.294;12.182;2023-02-15T03:27:59;81223.00;;;6.90
12007;BMP180;6062;47.294;12.182;2023-02-15T03:30:29;81213.00;;;6.90
12007;BMP180;6062;47.294;12.182;2023-02-15T03:32:59;81212.00;;;6.90
12007;BMP180;6062;47.294;12.182;2023-02-15T03:35:34;81223.00;;;6.90
12007;BMP180;6062;47.294;12.182;2023-02-15T03:38:06;81214.00;;;6.90
12007;BMP180;6062;47.294;12.182;2023-02-15T03:40:40;81213.00;;;6.90
12007;BMP180;6062;47.294;12.182;2023-02-15T03:43:54;81212.00;;;6.90
12007;BMP180;6062;47.294;12.182;2023-02-15T03:47:06;81207.00;;;6.90
12007;BMP180;6062;47.294;12.182;2023-02-15T03:49:54;81207.00;;;6.80
12007;BMP180;6062;47.294;12.182;2023-02-15T03:52:23;81200.00;;;6.80
12007;BMP180;6062;47.294;12.182;2023-02-15T03:54:51;81204.00;;;6.80
12007;BMP180;6062;47.294;12.182;2023-02-15T03:57:28;81203.00;;;6.80
12007;BMP180;6062;47.294;12.182;2023-02-15T04:00:22;81201.00;;;6.80
12007;BMP180;6062;47.294;12.182;2023-02-15T04:03:39;81202.00;;;6.80
12007;BMP180;6062;47.294;12.182;2023-02-15T04:06:05;81198.00;;;6.80
12007;BMP180;6062;47.294;12.182;2023-02-15T04:08:31;81195.00;;;6.80
12007;BMP180;6062;47.294;12.182;2023-02-15T04:11:15;81192.00;;;6.80
12007;BMP180;6062;47.294;12.182;2023-02-15T04:13:41;81197.00;;;6.70
12007;BMP180;6062;47.294;12.182;2023-02-15T04:16:07;81206.00;;;6.70
12007;BMP180;6062;47.294;12.182;2023-02-15T04:18:42;81206.00;;;6.70
12007;BMP180;6062;47.294;12.182;2023-02-15T04:21:29;81200.00;;;6.70
12007;BMP180;6062;47.294;12.182;2023-02-15T04:24:15;81206.00;;;6.70
12007;BMP180;6062;47.294;12.182;2023-02-15T04:26:59;81206.00;;;6.60
12007;BMP180;6062;47.294;12.182;2023-02-15T04:29:27;81198.00;;;6.60
12007;BMP180;6062;47.294;12.182;2023-02-15T04:31:56;81205.00;;;6.60
12007;BMP180;6062;47.294;12.182;2023-02-15T04:34:22;81205.00;;;6.60
12007;BMP180;6062;47.294;12.182;2023-02-15T04:36:48;81203.00;;;6.50
12007;BMP180;6062;47.294;12.182;2023-02-15T04:39:17;81211.00;;;6.50
12007;BMP180;6062;47.294;12.182;2023-02-15T04:41:44;81197.00;;;6.50
12007;BMP180;6062;47.294;12.182;2023-02-15T04:44:10;81207.00;;;6.50
12007;BMP180;6062;47.294;12.182;2023-02-15T04:46:36;81205.00;;;6.50
12007;BMP180;6062;47.294;12.182;2023-02-15T04:49:02;81199.00;;;6.50
12007;BMP180;6062;47.294;12.182;2023-02-15T04:51:28;81206.00;;;6.50
12007;BMP180;6062;47.294;12.182;2023-02-15T04:53:54;81199.00;;;6.50
12007;BMP180;6062;47.294;12.182;2023-02-15T04:56:20;81207.00;;;6.40
12007;BMP180;6062;47.294;12.182;2023-02-15T04:58:47;81202.00;;;6.50
12007;BMP180;6062;47.294;12.182;2023-02-15T05:01:13;81202.00;;;6.50
12007;BMP180;6062;47.294;12.182;2023-02-15T05:03:39;81204.00;;;6.50
12007;BMP180;6062;47.294;12.182;2023-02-15T05:06:05;81204.00;;;6.50
12007;BMP180;6062;47.294;12.182;2023-02-15T05:08:31;81206.00;;;6.60
12007;BMP180;6062;47.294;12.182;2023-02-15T05:10:57;81209.00;;;6.60
12007;BMP180;6062;47.294;12.182;2023-02-15T05:13:24;81211.00;;;6.70
12007;BMP180;6062;47.294;12.182;2023-02-15T05:15:51;81213.00;;;6.70
12007;BMP180;6062;47.294;12.182;2023-02-15T05:18:20;81205.00;;;6.80
12007;BMP180;6062;47.294;12.182;2023-02-15T05:20:46;81202.00;;;6.80
12007;BMP180;6062;47.294;12.182;2023-02-15T05:23:13;81201.00;;;6.90
12007;BMP180;6062;47.294;12.182;2023-02-15T05:25:39;81209.00;;;7.00
12007;BMP180;6062;47.294;12.182;2023-02-15T05:28:25;81203.00;;;7.00
12007;BMP180;6062;47.294;12.182;2023-02-15T05:31:10;81212.00;;;7.10
12007;BMP180;6062;47.294;12.182;2023-02-15T05:33:36;81210.00;;;7.10
12007;BMP180;6062;47.294;12.182;2023-02-15T05:36:03;81206.00;;;7.10
12007;BMP180;6062;47.294;12.182;2023-02-15T05:38:29;81207.00;;;7.10
12007;BMP180;6062;47.294;12.182;2023-02-15T05:40:56;81204.00;;;7.10
12007;BMP180;6062;47.294;12.182;2023-02-15T05:43:22;81207.00;;;7.00
12007;BMP180;6062;47.294;12.182;2023-02-15T05:45:51;81209.00;;;7.00
12007;BMP180;6062;47.294;12.182;2023-02-15T05:48:18;81210.00;;;6.90
12007;BMP180;6062;47.294;12.182;2023-02-15T05:50:45;81217.00;;;6.90
12007;BMP180;6062;47.294;12.182;2023-02-15T05:53:11;81209.00;;;6.90
12007;BMP180;6062;47.294;12.182;2023-02-15T05:55:39;81218.00;;;6.80
12007;BMP180;6062;47.294;12.182;2023-02-15T05:58:06;81221.00;;;6.80
12007;BMP180;6062;47.294;12.182;2023-02-15T06:00:32;81223.00;;;6.70
12007;BMP180;6062;47.294;12.182;2023-02-15T06:02:57;81230.00;;;6.70
12007;BMP180;6062;47.294;12.182;2023-02-15T06:05:23;81226.00;;;6.70
12007;BMP180;6062;47.294;12.182;2023-02-15T06:07:49;81228.00;;;6.60
12007;BMP180;6062;47.294;12.182;2023-02-15T06:10:15;81232.00;;;6.60
12007;BMP180;6062;47.294;12.182;2023-02-15T06:12:40;81226.00;;;6.50
12007;BMP180;6062;47.294;12.182;2023-02-15T06:15:06;81229.00;;;6.50
12007;BMP180;6062;47.294;12.182;2023-02-15T06:17:32;81230.00;;;6.50
12007;BMP180;6062;47.294;12.182;2023-02-15T06:19:58;81226.00;;;6.40
12007;BMP180;6062;47.294;12.182;2023-02-15T06:22:24;81230.00;;;6.40
12007;BMP180;6062;47.294;12.182;2023-02-15T06:24:49;81225.00;;;6.40
12007;BMP180;6062;47.294;12.182;2023-02-15T06:27:15;81223.00;;;6.40
12007;BMP180;6062;47.294;12.182;2023-02-15T06:29:41;81230.00;;;6.40
12007;BMP180;6062;47.294;12.182;2023-02-15T06:32:06;81223.00;;;6.40
12007;BMP180;6062;47.294;12.182;2023-02-15T06:34:32;81225.00;;;6.50
12007;BMP180;6062;47.294;12.182;2023-02-15T06:36:58;81223.00;;;6.80
12007;BMP180;6062;47.294;12.182;2023-02-15T06:39:24;81228.00;;;7.20
12007;BMP180;6062;47.294;12.182;2023-02-15T06:41:50;81225.00;;;7.70
12007;BMP180;6062;47.294;12.182;2023-02-15T06:44:15;81234.00;;;8.40
12007;BMP180;6062;47.294;12.182;2023-02-15T06:46:41;81233.00;;;9.00
12007;BMP180;6062;47.294;12.182;2023-02-15T06:49:07;81237.00;;;9.80
12007;BMP180;6062;47.294;12.182;2023-02-15T06:51:32;81238.00;;;10.60
12007;BMP180;6062;47.294;12.182;2023-02-15T06:53:59;81235.00;;;11.40
12007;BMP180;6062;47.294;12.182;2023-02-15T06:56:25;81244.00;;;12.20
12007;BMP180;6062;47.294;12.182;2023-02-15T06:58:51;81246.00;;;13.00
12007;BMP180;6062;47.294;12.182;2023-02-15T07:01:18;81243.00;;;13.80
12007;BMP180;6062;47.294;12.182;2023-02-15T07:03:44;81241.00;;;14.50
12007;BMP180;6062;47.294;12.182;2023-02-15T07:06:10;81248.00;;;15.30
12007;BMP180;6062;47.294;12.182;2023-02-15T07:08:37;81245.00;;;16.10
12007;BMP180;6062;47.294;12.182;2023-02-15T07:11:04;81254.00;;;16.90
12007;BMP180;6062;47.294;12.182;2023-02-15T07:13:49;81261.00;;;17.70
12007;BMP180;6062;47.294;12.182;2023-02-15T07:16:15;81256.00;;;18.40
12007;BMP180;6062;47.294;12.182;2023-02-15T07:18:40;81257.00;;;19.10
12007;BMP180;6062;47.294;12.182;2023-02-15T07:21:07;81260.00;;;19.80
12007;BMP180;6062;47.294;12.182;2023-02-15T07:23:38;81252.00;;;20.50
12007;BMP180;6062;47.294;12.182;2023-02-15T07:26:05;81262.00;;;21.20
12007;BMP180;6062;47.294;12.182;2023-02-15T07:28:32;81261.00;;;21.90
12007;BMP180;6062;47.294;12.182;2023-02-15T07:30:57;81263.00;;;22.70
12007;BMP180;6062;47.294;12.182;2023-02-15T07:33:24;81261.00;;;23.40
12007;BMP180;6062;47.294;12.182;2023-02-15T07:35:55;81254.00;;;24.10
12007;BMP180;6062;47.294;12.182;2023-02-15T07:38:27;81256.00;;;24.80
12007;BMP180;6062;47.294;12.182;2023-02-15T07:41:03;81263.00;;;25.40
12007;BMP180;6062;47.294;12.182;2023-02-15T07:43:29;81266.00;;;26.00
12007;BMP180;6062;47.294;12.182;2023-02-15T07:46:09;81270.00;;;26.60
12007;BMP180;6062;47.294;12.182;2023-02-15T07:48:36;81268.00;;;27.10
12007;BMP180;6062;47.294;12.182;2023-02-15T07:51:05;81268.00;;;27.70
12007;BMP180;6062;47.294;12.182;2023-02-15T07:53:32;81274.00;;;28.20
12007;BMP180;6062;47.294;12.182;2023-02-15T07:56:08;81264.00;;;28.70
12007;BMP180;6062;47.294;12.182;2023-02-15T07:58:34;81267.00;;;29.00
12007;BMP180;6062;47.294;12.182;2023-02-15T08:01:27;81268.00;;;29.40
12007;BMP180;6062;47.294;12.182;2023-02-15T08:03:55;81274.00;;;29.70
12007;BMP180;6062;47.294;12.182;2023-02-15T08:06:29;81278.00;;;29.90
12007;BMP180;6062;47.294;12.182;2023-02-15T08:08:55;81266.00;;;30.10
12007;BMP180;6062;47.294;12.182;2023-02-15T08:11:25;81273.00;;;30.20
12007;BMP180;6062;47.294;12.182;2023-02-15T08:14:16;81263.00;;;30.30
12007;BMP180;6062;47.294;12.182;2023-02-15T08:16:51;81272.00;;;30.50
12007;BMP180;6062;47.294;12.182;2023-02-15T08:19:26;81267.00;;;30.70
12007;BMP180;6062;47.294;12.182;2023-02-15T08:21:53;81268.00;;;30.90
12007;BMP180;6062;47.294;12.182;2023-02-15T08:24:22;81272.00;;;31.10
12007;BMP180;6062;47.294;12.182;2023-02-15T08:26:49;81271.00;;;31.30
12007;BMP180;6062;47.294;12.182;2023-02-15T08:29:19;81270.00;;;31.40
12007;BMP180;6062;47.294;12.182;2023-02-15T08:31:45;81272.00;;;31.50
12007;BMP180;6062;47.294;12.182;2023-02-15T08:34:16;81272.00;;;31.40
12007;BMP180;6062;47.294;12.182;2023-02-15T08:36:42;81270.00;;;31.50
12007;BMP180;6062;47.294;12.182;2023-02-15T08:39:11;81277.00;;;31.50
12007;BMP180;6062;47.294;12.182;2023-02-15T08:41:38;81275.00;;;31.60
12007;BMP180;6062;47.294;12.182;2023-02-15T08:44:07;81272.00;;;31.80
12007;BMP180;6062;47.294;12.182;2023-02-15T08:46:37;81273.00;;;32.00
12007;BMP180;6062;47.294;12.182;2023-02-15T08:49:04;81274.00;;;32.30
12007;BMP180;6062;47.294;12.182;2023-02-15T08:51:33;81271.00;;;32.60
12007;BMP180;6062;47.294;12.182;2023-02-15T08:54:05;81275.00;;;32.80
12007;BMP180;6062;47.294;12.182;2023-02-15T08:56:35;81276.00;;;33.00
12007;BMP180;6062;47.294;12.182;2023-02-15T08:59:02;81280.00;;;33.20
12007;BMP180;6062;47.294;12.182;2023-02-15T09:01:31;81279.00;;;33.30
12007;BMP180;6062;47.294;12.182;2023-02-15T09:04:07;81282.00;;;33.20
12007;BMP180;6062;47.294;12.182;2023-02-15T09:06:39;81285.00;;;33.10
12007;BMP180;6062;47.294;12.182;2023-02-15T09:09:06;81283.00;;;33.10
12007;BMP180;6062;47.294;12.182;2023-02-15T09:11:39;81294.00;;;33.10
12007;BMP180;6062;47.294;12.182;2023-02-15T09:14:12;81287.00;;;33.10
12007;BMP180;6062;47.294;12.182;2023-02-15T09:16:44;81294.00;;;33.20
12007;BMP180;6062;47.294;12.182;2023-02-15T09:19:12;81292.00;;;33.20
12007;BMP180;6062;47.294;12.182;2023-02-15T09:21:39;81294.00;;;33.30
12007;BMP180;6062;47.294;12.182;2023-02-15T09:24:11;81293.00;;;33.40
12007;BMP180;6062;47.294;12.182;2023-02-15T09:26:42;81297.00;;;33.50
12007;BMP180;6062;47.294;12.182;2023-02-15T09:29:09;81294.00;;;33.70
12007;BMP180;6062;47.294;12.182;2023-02-15T09:31:45;81294.00;;;33.90
12007;BMP180;6062;47.294;12.182;2023-02-15T09:34:17;81303.00;;;34.10
12007;BMP180;6062;47.294;12.182;2023-02-15T09:36:44;81298.00;;;34.30
12007;BMP180;6062;47.294;12.182;2023-02-15T09:39:30;81299.00;;;34.50
12007;BMP180;6062;47.294;12.182;2023-02-15T09:56:37;81307.00;;;35.30
12007;BMP180;6062;47.294;12.182;2023-02-15T09:59:33;81305.00;;;35.40
12007;BMP180;6062;47.294;12.182;2023-02-15T10:05:51;81300.00;;;35.60
12007;BMP180;6062;47.294;12.182;2023-02-15T10:09:03;81309.00;;;35.70
12007;BMP180;6062;47.294;12.182;2023-02-15T10:14:55;81305.00;;;35.80
12007;BMP180;6062;47.294;12.182;2023-02-15T10:21:21;81308.00;;;35.80
12007;BMP180;6062;47.294;12.182;2023-02-15T10:24:32;81307.00;;;35.90
12007;BMP180;6062;47.294;12.182;2023-02-15T10:27:11;81309.00;;;35.90
12007;BMP180;6062;47.294;12.182;2023-02-15T10:32:26;81305.00;;;36.00
12007;BMP180;6062;47.294;12.182;2023-02-15T10:35:19;81302.00;;;36.00
12007;BMP180;6062;47.294;12.182;2023-02-15T10:50:02;81296.00;;;36.10
12007;BMP180;6062;47.294;12.182;2023-02-15T11:01:59;81293.00;;;35.90
12007;BMP180;6062;47.294;12.182;2023-02-15T11:04:50;81285.00;;;35.80
12007;BMP180;6062;47.294;12.182;2023-02-15T11:07:32;81284.00;;;35.80
12007;BMP180;6062;47.294;12.182;2023-02-15T11:12:49;81280.00;;;35.60
12007;BMP180;6062;47.294;12.182;2023-02-15T11:15:29;81281.00;;;35.50
12007;BMP180;6062;47.294;12.182;2023-02-15T11:18:04;81277.00;;;35.50
12007;BMP180;6062;47.294;12.182;2023-02-15T11:20:53;81280.00;;;35.40
12007;BMP180;6062;47.294;12.182;2023-02-15T11:23:20;81273.00;;;35.30
12007;BMP180;6062;47.294;12.182;2023-02-15T11:26:00;81269.00;;;35.30
12007;BMP180;6062;47.294;12.182;2023-02-15T11:28:45;81273.00;;;35.10
12007;BMP180;6062;47.294;12.182;2023-02-15T11:31:18;81274.00;;;35.10
12007;BMP180;6062;47.294;12.182;2023-02-15T11:33:57;81265.00;;;35.00
12007;BMP180;6062;47.294;12.182;2023-02-15T11:36:38;81269.00;;;34.90
12007;BMP180;6062;47.294;12.182;2023-02-15T11:39:12;81260.00;;;34.80
12007;BMP180;6062;47.294;12.182;2023-02-15T11:41:55;81259.00;;;34.60
12007;BMP180;6062;47.294;12.182;2023-02-15T11:44:30;81267.00;;;34.50
12007;BMP180;6062;47.294;12.182;2023-02-15T11:46:58;81261.00;;;34.40
12007;BMP180;6062;47.294;12.182;2023-02-15T11:49:32;81254.00;;;34.20
12007;BMP180;6062;47.294;12.182;2023-02-15T11:52:05;81253.00;;;34.10
12007;BMP180;6062;47.294;12.182;2023-02-15T11:54:34;81255.00;;;34.00
12007;BMP180;6062;47.294;12.182;2023-02-15T12:00:06;81253.00;;;33.80
12007;BMP180;6062;47.294;12.182;2023-02-15T12:02:38;81247.00;;;33.60
12007;BMP180;6062;47.294;12.182;2023-02-15T12:05:16;81248.00;;;33.50
12007;BMP180;6062;47.294;12.182;2023-02-15T12:07:50;81249.00;;;33.30
12007;BMP180;6062;47.294;12.182;2023-02-15T12:10:29;81244.00;;;33.20
12007;BMP180;6062;47.294;12.182;2023-02-15T12:13:17;81242.00;;;33.10
12007;BMP180;6062;47.294;12.182;2023-02-15T12:16:07;81238.00;;;33.00
12007;BMP180;6062;47.294;12.182;2023-02-15T12:18:41;81232.00;;;32.80
12007;BMP180;6062;47.294;12.182;2023-02-15T12:21:14;81237.00;;;32.70
12007;BMP180;6062;47.294;12.182;2023-02-15T12:23:48;81235.00;;;32.50
12007;BMP180;6062;47.294;12.182;2023-02-15T12:26:31;81241.00;;;32.20
12007;BMP180;6062;47.294;12.182;2023-02-15T12:29:01;81230.00;;;31.90
12007;BMP180;6062;47.294;12.182;2023-02-15T12:31:40;81232.00;;;31.60
12007;BMP180;6062;47.294;12.182;2023-02-15T12:34:21;81231.00;;;31.30
12007;BMP180;6062;47.294;12.182;2023-02-15T12:36:52;81236.00;;;30.80
12007;BMP180;6062;47.294;12.182;2023-02-15T12:39:32;81225.00;;;30.40
12007;BMP180;6062;47.294;12.182;2023-02-15T12:42:16;81220.00;;;29.80
12007;BMP180;6062;47.294;12.182;2023-02-15T12:45:20;81218.00;;;29.10
12007;BMP180;6062;47.294;12.182;2023-02-15T12:48:07;81217.00;;;28.50
12007;BMP180;6062;47.294;12.182;2023-02-15T12:50:33;81213.00;;;27.70
12007;BMP180;6062;47.294;12.182;2023-02-15T12:53:30;81217.00;;;27.00
12007;BMP180;6062;47.294;12.182;2023-02-15T12:55:59;81207.00;;;26.30
12007;BMP180;6062;47.294;12.182;2023-02-15T12:58:32;81206.00;;;25.60
12007;BMP180;6062;47.294;12.182;2023-02-15T13:01:19;81201.00;;;24.80
12007;BMP180;6062;47.294;12.182;2023-02-15T13:06:49;81194.00;;;23.30
12007;BMP180;6062;47.294;12.182;2023-02-15T13:09:38;81195.00;;;22.60
12007;BMP180;6062;47.294;12.182;2023-02-15T13:12:25;81192.00;;;22.00
12007;BMP180;6062;47.294;12.182;2023-02-15T13:14:57;81183.00;;;21.50
12007;BMP180;6062;47.294;12.182;2023-02-15T13:17:32;81184.00;;;21.00
12007;BMP180;6062;47.294;12.182;2023-02-15T13:20:19;81185.00;;;20.50
12007;BMP180;6062;47.294;12.182;2023-02-15T13:22:50;81173.00;;;20.00
12007;BMP180;6062;47.294;12.182;2023-02-15T13:25:28;81172.00;;;19.50
12007;BMP180;6062;47.294;12.182;2023-02-15T13:28:01;81172.00;;;19.10
12007;BMP180;6062;47.294;12.182;2023-02-15T13:30:33;81174.00;;;18.70
12007;BMP180;6062;47.294;12.182;2023-02-15T13:33:10;81170.00;;;18.40
12007;BMP180;6062;47.294;12.182;2023-02-15T13:35:51;81168.00;;;18.00
12007;BMP180;6062;47.294;12.182;2023-02-15T13:38:43;81166.00;;;17.60
12007;BMP180;6062;47.294;12.182;2023-02-15T13:41:29;81162.00;;;17.30
12007;BMP180;6062;47.294;12.182;2023-02-15T13:46:47;81162.00;;;16.80
12007;BMP180;6062;47.294;12.182;2023-02-15T13:49:44;81163.00;;;16.50
12007;BMP180;6062;47.294;12.182;2023-02-15T13:52:23;81157.00;;;16.30
12007;BMP180;6062;47.294;12.182;2023-02-15T14:07:09;81156.00;;;15.30
12007;BMP180;6062;47.294;12.182;2023-02-15T14:13:35;81156.00;;;14.90
12007;BMP180;6062;47.294;12.182;2023-02-15T14:16:33;81151.00;;;14.70
12007;BMP180;6062;47.294;12.182;2023-02-15T14:23:12;81153.00;;;14.30
12007;BMP180;6062;47.294;12.182;2023-02-15T14:25:51;81152.00;;;14.20
12007;BMP180;6062;47.294;12.182;2023-02-15T14:28:35;81155.00;;;14.10
12007;BMP180;6062;47.294;12.182;2023-02-15T14:31:07;81167.00;;;14.00
12007;BMP180;6062;47.294;12.182;2023-02-15T14:33:38;81151.00;;;13.80
12007;BMP180;6062;47.294;12.182;2023-02-15T14:36:08;81152.00;;;13.70
12007;BMP180;6062;47.294;12.182;2023-02-15T14:41:53;81153.00;;;13.50
12007;BMP180;6062;47.294;12.182;2023-02-15T14:44:37;81142.00;;;13.40
12007;BMP180;6062;47.294;12.182;2023-02-15T14:47:41;81151.00;;;13.20
12007;BMP180;6062;47.294;12.182;2023-02-15T14:58:32;81142.00;;;12.50
12007;BMP180;6062;47.294;12.182;2023-02-15T15:01:10;81147.00;;;12.40
12007;BMP180;6062;47.294;12.182;2023-02-15T15:03:43;81136.00;;;12.30
12007;BMP180;6062;47.294;12.182;2023-02-15T15:06:37;81147.00;;;12.10
12007;BMP180;6062;47.294;12.182;2023-02-15T15:09:22;81150.00;;;12.00
12007;BMP180;6062;47.294;12.182;2023-02-15T15:11:52;81141.00;;;11.80
12007;BMP180;6062;47.294;12.182;2023-02-15T15:17:05;81138.00;;;11.50
12007;BMP180;6062;47.294;12.182;2023-02-15T15:22:22;81133.00;;;11.30
12007;BMP180;6062;47.294;12.182;2023-02-15T15:24:55;81135.00;;;11.10
12007;BMP180;6062;47.294;12.182;2023-02-15T15:27:53;81135.00;;;11.00
12007;BMP180;6062;47.294;12.182;2023-02-15T15:50:13;81130.00;;;10.30
12007;BMP180;6062;47.294;12.182;2023-02-15T15:52:46;81119.00;;;10.20
12007;BMP180;6062;47.294;12.182;2023-02-15T15:55:20;81121.00;;;10.10
12007;BMP180;6062;47.294;12.182;2023-02-15T15:57:52;81115.00;;;10.00
12007;BMP180;6062;47.294;12.182;2023-02-15T16:00:24;81131.00;;;9.90
12007;BMP180;6062;47.294;12.182;2023-02-15T16:02:53;81123.00;;;9.70
12007;BMP180;6062;47.294;12.182;2023-02-15T16:05:19;81128.00;;;9.60
12007;BMP180;6062;47.294;12.182;2023-02-15T16:07:45;81135.00;;;9.50
12007;BMP180;6062;47.294;12.182;2023-02-15T16:10:26;81131.00;;;9.40
12007;BMP180;6062;47.294;12.182;2023-02-15T16:12:53;81129.00;;;9.30
12007;BMP180;6062;47.294;12.182;2023-02-15T16:15:24;81132.00;;;9.20
12007;BMP180;6062;47.294;12.182;2023-02-15T16:17:57;81131.00;;;9.10
12007;BMP180;6062;47.294;12.182;2023-02-15T16:20:31;81125.00;;;9.00
12007;BMP180;6062;47.294;12.182;2023-02-15T16:29:17;81126.00;;;8.70
12007;BMP180;6062;47.294;12.182;2023-02-15T16:31:57;81126.00;;;8.60
12007;BMP180;6062;47.294;12.182;2023-02-15T16:34:23;81127.00;;;8.50
12007;BMP180;6062;47.294;12.182;2023-02-15T16:36:49;81137.00;;;8.40
12007;BMP180;6062;47.294;12.182;2023-02-15T16:39:20;81134.00;;;8.30
12007;BMP180;6062;47.294;12.182;2023-02-15T16:41:48;81135.00;;;8.20
12007;BMP180;6062;47.294;12.182;2023-02-15T16:44:19;81140.00;;;8.10
12007;BMP180;6062;47.294;12.182;2023-02-15T16:46:52;81141.00;;;8.10
12007;BMP180;6062;47.294;12.182;2023-02-15T16:49:26;81152.00;;;8.00
12007;BMP180;6062;47.294;12.182;2023-02-15T16:52:05;81153.00;;;7.90
12007;BMP180;6062;47.294;12.182;2023-02-15T16:54:34;81163.00;;;7.90
12007;BMP180;6062;47.294;12.182;2023-02-15T16:57:01;81159.00;;;7.80
12007;BMP180;6062;47.294;12.182;2023-02-15T16:59:41;81158.00;;;7.80
12007;BMP180;6062;47.294;12.182;2023-02-15T17:02:19;81153.00;;;7.80
12007;BMP180;6062;47.294;12.182;2023-02-15T17:05:15;81158.00;;;7.80
12007;BMP180;6062;47.294;12.182;2023-02-15T17:08:16;81155.00;;;7.80
12007;BMP180;6062;47.294;12.182;2023-02-15T17:11:14;81154.00;;;7.80
12007;BMP180;6062;47.294;12.182;2023-02-15T17:14:10;81144.00;;;7.90